createdAt,value
2022-10-22T00:01:00.594Z,98919.19
2022-10-22T00:03:27.486Z,98921.06
2022-10-22T00:05:53.941Z,98921.88
2022-10-22T00:08:20.352Z,98922.13
2022-10-22T00:10:46.878Z,98913.25
2022-10-22T00:13:14.061Z,98916.75
2022-10-22T00:15:40.480Z,98916.53
2022-10-22T00:18:06.941Z,98908.31
2022-10-22T00:20:33.520Z,98895.75
2022-10-22T00:23:02.220Z,98902.34
2022-10-22T00:25:28.715Z,98904.41
2022-10-22T00:27:55.304Z,98912.88
2022-10-22T00:30:21.934Z,98906.25
2022-10-22T00:32:48.357Z,98910.84
2022-10-22T00:35:14.854Z,98907.53
2022-10-22T00:37:41.206Z,98911.66
2022-10-22T00:40:08.655Z,98923.03
2022-10-22T00:42:35.456Z,98914.97
2022-10-22T00:45:16.119Z,98901.56
2022-10-22T00:48:10.722Z,98885.28
2022-10-22T00:50:48.270Z,98885.28
2022-10-22T00:53:18.752Z,98886.91
2022-10-22T00:55:47.822Z,98880.75
2022-10-22T00:58:15.120Z,98874.75
2022-10-22T01:00:42.679Z,98871.28
2022-10-22T01:03:09.182Z,98870.25
2022-10-22T01:05:44.140Z,98873.34
2022-10-22T01:08:25.457Z,98868.81
2022-10-22T01:11:08.035Z,98880.38
2022-10-22T01:13:53.075Z,98893.13
2022-10-22T01:16:36.167Z,98892.94
2022-10-22T01:19:24.174Z,98905.72
2022-10-22T01:22:05.235Z,98908.19
2022-10-22T01:24:57.708Z,98911.09
2022-10-22T01:27:32.887Z,98908.41
2022-10-22T01:30:07.222Z,98906.78
2022-10-22T01:32:39.968Z,98898.09
2022-10-22T01:35:11.143Z,98889.84
2022-10-22T01:37:43.590Z,98901.63
2022-10-22T01:40:12.028Z,98901.41
2022-10-22T01:42:38.385Z,98899.34
2022-10-22T01:45:11.533Z,98895.22
2022-10-22T01:47:51.464Z,98896.25
2022-10-22T01:50:36.559Z,98876.88
2022-10-22T01:53:17.800Z,98869.66
2022-10-22T01:56:01.544Z,98860.00
2022-10-22T01:58:34.208Z,98857.31
2022-10-22T02:01:08.697Z,98857.09
2022-10-22T02:04:00.530Z,98862.88
2022-10-22T02:06:29.491Z,98861.03
2022-10-22T02:08:58.468Z,98865.38
2022-10-22T02:11:25.176Z,98869.69
2022-10-22T02:13:55.660Z,98880.00
2022-10-22T02:16:28.820Z,98894.44
2022-10-22T02:18:58.778Z,98901.63
2022-10-22T02:21:27.046Z,98907.63
2022-10-22T02:23:54.529Z,98897.31
2022-10-22T02:26:30.780Z,98907.22
2022-10-22T02:29:06.715Z,98911.53
2022-10-22T02:31:37.243Z,98926.16
2022-10-22T02:34:11.343Z,98932.38
2022-10-22T02:36:40.239Z,98926.78
2022-10-22T02:39:08.062Z,98950.28
2022-10-22T02:41:35.128Z,98950.50
2022-10-22T02:44:01.484Z,98951.94
2022-10-22T02:46:28.821Z,98959.56
2022-10-22T02:48:55.338Z,98951.72
2022-10-22T02:51:21.766Z,98958.53
2022-10-22T02:53:48.258Z,98952.94
2022-10-22T02:56:14.905Z,98947.59
2022-10-22T02:58:41.271Z,98942.66
2022-10-22T03:01:09.420Z,98943.47
2022-10-22T03:03:37.951Z,98951.91
2022-10-22T03:06:04.469Z,98945.53
2022-10-22T03:08:30.958Z,98942.66
2022-10-22T03:10:58.643Z,98951.91
2022-10-22T03:13:25.565Z,98954.56
2022-10-22T03:15:51.896Z,98943.91
2022-10-22T03:18:18.353Z,98942.25
2022-10-22T03:20:44.769Z,98941.00
2022-10-22T03:23:17.271Z,98937.09
2022-10-22T03:25:44.757Z,98930.28
2022-10-22T03:28:13.309Z,98920.81
2022-10-22T03:30:39.732Z,98910.50
2022-10-22T03:33:06.163Z,98915.88
2022-10-22T03:35:39.034Z,98907.16
2022-10-22T03:38:05.409Z,98914.38
2022-10-22T03:40:31.971Z,98915.44
2022-10-22T03:42:58.883Z,98911.75
2022-10-22T03:45:25.586Z,98899.78
2022-10-22T03:47:52.238Z,98904.75
2022-10-22T03:50:18.709Z,98910.91
2022-10-22T03:52:45.340Z,98917.91
2022-10-22T03:55:11.803Z,98937.69
2022-10-22T03:57:38.650Z,98935.66
2022-10-22T04:00:06.806Z,98947.59
2022-10-22T04:02:33.246Z,98956.44
2022-10-22T04:05:00.128Z,98955.84
2022-10-22T04:07:26.864Z,98961.22
2022-10-22T04:09:53.254Z,98971.28
2022-10-22T04:12:19.881Z,98970.88
2022-10-22T04:14:46.425Z,98975.16
2022-10-22T04:17:13.329Z,98968.97
2022-10-22T04:19:39.686Z,98980.69
2022-10-22T04:22:06.053Z,98975.53
2022-10-22T04:24:32.544Z,98957.63
2022-10-22T04:26:59.352Z,98949.34
2022-10-22T04:29:26.029Z,98946.50
2022-10-22T04:31:52.555Z,98942.53
2022-10-22T04:34:19.000Z,98962.56
2022-10-22T04:36:45.476Z,98973.84
2022-10-22T04:39:14.106Z,98958.59
2022-10-22T04:41:40.629Z,98966.03
2022-10-22T04:44:11.022Z,98957.34
2022-10-22T04:46:42.567Z,98957.13
2022-10-22T04:49:10.006Z,98951.97
2022-10-22T04:51:36.556Z,98942.72
2022-10-22T04:54:04.425Z,98945.78
2022-10-22T04:56:31.952Z,98941.44
2022-10-22T04:59:01.243Z,98924.38
2022-10-22T05:01:35.772Z,98931.56
2022-10-22T05:04:06.910Z,98934.88
2022-10-22T05:06:35.406Z,98935.50
2022-10-22T05:09:05.610Z,98917.78
2022-10-22T05:11:36.412Z,98935.09
2022-10-22T05:14:04.598Z,98937.13
2022-10-22T05:16:31.860Z,98946.19
2022-10-22T05:19:00.765Z,98949.69
2022-10-22T05:21:27.894Z,98941.84
2022-10-22T05:23:56.300Z,98941.03
2022-10-22T05:26:23.489Z,98939.56
2022-10-22T05:28:50.125Z,98938.97
2022-10-22T05:31:18.444Z,98949.84
2022-10-22T05:33:46.112Z,98949.03
2022-10-22T05:36:15.558Z,98958.69
2022-10-22T05:38:41.940Z,98972.06
2022-10-22T05:41:11.617Z,98969.63
2022-10-22T05:43:38.980Z,98975.97
2022-10-22T05:46:35.795Z,98983.59
2022-10-22T05:49:05.491Z,98987.72
2022-10-22T05:51:33.651Z,98992.50
2022-10-22T05:54:03.302Z,98999.91
2022-10-22T05:56:31.146Z,99002.00
2022-10-22T05:58:58.000Z,99011.22
2022-10-22T06:01:28.079Z,99008.34
2022-10-22T06:03:57.021Z,99016.97
2022-10-22T06:06:39.311Z,99019.66
2022-10-22T06:09:30.109Z,99036.38
2022-10-22T06:11:57.539Z,99037.38
2022-10-22T06:14:24.693Z,99040.69
2022-10-22T06:16:51.595Z,99044.63
2022-10-22T06:19:20.989Z,99044.81
2022-10-22T06:21:48.458Z,99049.53
2022-10-22T06:24:15.224Z,99043.78
2022-10-22T06:26:41.726Z,99045.69
2022-10-22T06:29:08.700Z,99047.13
2022-10-22T06:31:35.545Z,99041.38
2022-10-22T06:34:12.509Z,99062.41
2022-10-22T06:36:42.659Z,99074.34
2022-10-22T06:39:12.455Z,99079.31
2022-10-22T06:41:38.939Z,99083.03
2022-10-22T06:44:08.578Z,99084.06
2022-10-22T06:46:38.113Z,99083.47
2022-10-22T06:49:10.147Z,99088.03
2022-10-22T06:51:36.558Z,99090.09
2022-10-22T06:54:02.983Z,99091.34
2022-10-22T06:56:29.544Z,99091.56
2022-10-22T06:59:01.315Z,99093.84
2022-10-22T07:01:32.897Z,99091.59
2022-10-22T07:04:00.330Z,99096.59
2022-10-22T07:06:28.410Z,99110.63
2022-10-22T07:08:56.683Z,99110.03
2022-10-22T07:11:26.447Z,99112.34
2022-10-22T07:13:56.296Z,99118.53
2022-10-22T07:16:28.046Z,99126.56
2022-10-22T07:18:58.771Z,99139.13
2022-10-22T07:21:25.261Z,99138.91
2022-10-22T07:23:51.608Z,99145.50
2022-10-22T07:26:18.444Z,99159.75
2022-10-22T07:28:44.860Z,99154.56
2022-10-22T07:31:12.906Z,99177.88
2022-10-22T07:33:40.111Z,99182.63
2022-10-22T07:36:09.352Z,99199.97
2022-10-22T07:38:36.684Z,99199.00
2022-10-22T07:41:04.245Z,99198.19
2022-10-22T07:43:30.782Z,99209.94
2022-10-22T07:45:57.267Z,99222.34
2022-10-22T07:48:24.238Z,99231.22
2022-10-22T07:50:51.480Z,99241.56
2022-10-22T07:53:18.748Z,99253.34
2022-10-22T07:55:48.401Z,99265.94
2022-10-22T07:58:14.750Z,99266.00
2022-10-22T08:00:41.452Z,99287.06
2022-10-22T08:03:11.261Z,99302.13
2022-10-22T08:05:37.575Z,99317.44
2022-10-22T08:08:04.651Z,99332.13
2022-10-22T08:10:31.582Z,99334.81
2022-10-22T08:12:58.365Z,98864.56
2022-10-22T08:15:26.400Z,98862.03
2022-10-22T08:17:54.342Z,98865.22
2022-10-22T08:20:20.798Z,98854.09
2022-10-22T08:22:47.433Z,98850.38
2022-10-22T08:25:15.692Z,98847.09
2022-10-22T08:27:42.385Z,98833.13
2022-10-22T08:30:09.863Z,98829.38
2022-10-22T08:32:36.446Z,98822.59
2022-10-22T08:35:02.973Z,98808.34
2022-10-22T08:37:29.301Z,98809.50
2022-10-22T08:39:55.823Z,98807.81
2022-10-22T08:42:50.077Z,98806.94
2022-10-22T08:45:32.990Z,98812.19
2022-10-22T08:48:05.140Z,98803.59
2022-10-22T08:50:38.943Z,98801.81
2022-10-22T08:53:12.514Z,98803.34
2022-10-22T08:55:39.801Z,98789.59
2022-10-22T08:58:18.237Z,98799.47
2022-10-22T09:00:52.690Z,98803.00
2022-10-22T09:03:40.076Z,98803.81
2022-10-22T09:06:29.151Z,98806.38
2022-10-22T09:08:58.267Z,98812.97
2022-10-22T09:11:27.529Z,98803.94
2022-10-22T09:13:58.491Z,98805.19
2022-10-22T09:17:00.319Z,98808.66
2022-10-22T09:19:45.069Z,98812.59
2022-10-22T09:22:39.823Z,98817.94
2022-10-22T09:25:18.887Z,98816.03
2022-10-22T09:27:46.107Z,98814.53
2022-10-22T09:36:05.014Z,98819.56
2022-10-22T09:38:33.930Z,98811.03
2022-10-22T09:41:01.682Z,98818.78
2022-10-22T09:43:28.038Z,98818.72
2022-10-22T09:46:04.251Z,98824.50
2022-10-22T09:48:34.680Z,98819.53
2022-10-22T09:51:20.631Z,98825.16
2022-10-22T09:54:04.936Z,98826.06
2022-10-22T09:56:36.992Z,98830.38
2022-10-22T09:59:03.826Z,98827.81
2022-10-22T10:01:39.450Z,98834.19
2022-10-22T10:04:09.872Z,98837.03
2022-10-22T10:06:38.381Z,98830.41
2022-10-22T10:09:17.097Z,98833.84
2022-10-22T10:11:49.033Z,98836.72
2022-10-22T10:14:43.385Z,98830.44
2022-10-22T10:17:31.699Z,98834.91
2022-10-22T10:20:26.543Z,98829.16
2022-10-22T10:23:11.628Z,98828.03
2022-10-22T10:25:53.325Z,98835.44
2022-10-22T10:28:41.264Z,98842.66
2022-10-22T10:31:27.892Z,98833.50
2022-10-22T10:34:11.140Z,98834.06
2022-10-22T10:36:42.698Z,98831.69
2022-10-22T10:39:11.651Z,98829.91
2022-10-22T10:41:43.920Z,98837.13
2022-10-22T10:44:25.453Z,98835.59
2022-10-22T10:47:00.449Z,98845.84
2022-10-22T10:49:33.563Z,98840.63
2022-10-22T10:52:12.756Z,98845.16
2022-10-22T10:55:21.306Z,98847.63
2022-10-22T10:57:51.156Z,98843.75
2022-10-22T11:00:21.953Z,98838.16
2022-10-22T11:03:28.243Z,98845.72
2022-10-22T11:06:01.359Z,98841.03
2022-10-22T11:08:34.564Z,98842.59
2022-10-22T11:11:11.477Z,98838.16
2022-10-22T11:13:49.016Z,98845.31
2022-10-22T11:16:30.362Z,98847.22
2022-10-22T11:19:05.210Z,98839.94
2022-10-22T11:21:57.487Z,98847.25
2022-10-22T11:24:41.082Z,98837.25
2022-10-22T11:27:27.224Z,98843.06
2022-10-22T11:30:02.159Z,98836.81
2022-10-22T11:32:30.130Z,98835.38
2022-10-22T11:35:00.924Z,98832.97
2022-10-22T11:37:32.167Z,98836.56
2022-10-22T11:40:06.745Z,98829.69
2022-10-22T11:42:36.457Z,98828.72
2022-10-22T11:45:14.864Z,98826.09
2022-10-22T11:47:58.044Z,98827.84
2022-10-22T11:50:27.965Z,98827.31
2022-10-22T11:53:01.904Z,98821.03
2022-10-22T11:55:33.683Z,98812.63
2022-10-22T11:58:02.621Z,98807.94
2022-10-22T12:00:58.362Z,98813.97
2022-10-22T12:03:40.350Z,98817.16
2022-10-22T12:06:10.058Z,98813.06
2022-10-22T12:08:43.824Z,98813.91
2022-10-22T12:11:10.497Z,98819.06
2022-10-22T12:13:57.755Z,98814.19
2022-10-22T12:16:56.230Z,98813.63
2022-10-22T12:19:22.920Z,98811.09
2022-10-22T12:22:07.829Z,98819.63
2022-10-22T12:24:41.252Z,98813.31
2022-10-22T12:27:17.299Z,98807.25
2022-10-22T12:29:44.944Z,98810.28
2022-10-22T12:37:38.734Z,98811.44
2022-10-22T12:40:25.384Z,98814.28
2022-10-22T12:42:57.295Z,98809.91
2022-10-22T12:45:27.384Z,98809.94
2022-10-22T12:48:02.903Z,98806.00
2022-10-22T12:50:36.349Z,98801.66
2022-10-22T12:53:04.781Z,98807.47
2022-10-22T12:55:31.851Z,98801.00
2022-10-22T12:57:58.321Z,98806.84
2022-10-22T13:00:28.697Z,98797.53
2022-10-22T13:03:00.217Z,98808.34
2022-10-22T13:05:31.682Z,98800.06
2022-10-22T13:08:10.034Z,98789.34
2022-10-22T13:10:39.421Z,98797.31
2022-10-22T13:13:06.949Z,98791.75
2022-10-22T13:15:35.228Z,98794.53
2022-10-22T13:18:17.492Z,98800.53
2022-10-22T13:21:00.787Z,98798.09
2022-10-22T13:23:29.872Z,98805.72
2022-10-22T13:26:08.424Z,98799.47
2022-10-22T13:28:35.752Z,98793.66
2022-10-22T13:31:11.776Z,98800.50
2022-10-22T13:33:44.979Z,98789.97
2022-10-22T13:36:15.836Z,98796.25
2022-10-22T13:38:43.361Z,98800.56
2022-10-22T13:41:26.548Z,98790.53
2022-10-22T13:43:54.033Z,98787.47
2022-10-22T13:46:22.723Z,98779.09
2022-10-22T13:48:51.993Z,98783.16
2022-10-22T13:51:21.858Z,98792.16
2022-10-22T13:53:50.226Z,98801.38
2022-10-22T13:56:20.146Z,98798.31
2022-10-22T13:58:48.003Z,98794.72
2022-10-22T14:01:22.831Z,98791.78
2022-10-22T14:03:52.244Z,98790.41
2022-10-22T14:06:20.731Z,98791.03
2022-10-22T14:08:49.154Z,98796.47
2022-10-22T14:11:16.635Z,98792.91
2022-10-22T14:13:43.570Z,98795.91
2022-10-22T14:16:18.542Z,98801.50
2022-10-22T14:18:45.830Z,98800.69
2022-10-22T14:21:14.034Z,98793.09
2022-10-22T14:23:43.000Z,98796.63
2022-10-22T14:26:25.710Z,98800.97
2022-10-22T14:34:14.362Z,98788.63
2022-10-22T14:36:41.061Z,98789.59
2022-10-22T14:39:07.563Z,98790.13
2022-10-22T14:41:36.970Z,98794.41
2022-10-22T14:44:03.550Z,98787.06
2022-10-22T14:46:29.889Z,98785.94
2022-10-22T14:48:56.295Z,98781.69
2022-10-22T14:51:22.787Z,98787.09
2022-10-22T14:53:49.409Z,98786.13
2022-10-22T14:56:18.687Z,98784.22
2022-10-22T14:58:45.304Z,98795.59
2022-10-22T15:01:12.109Z,98794.44
2022-10-22T15:03:38.874Z,98792.28
2022-10-22T15:06:05.654Z,98791.94
2022-10-22T15:08:32.604Z,98794.13
2022-10-22T15:11:07.860Z,98790.59
2022-10-22T15:13:34.564Z,98799.13
2022-10-22T15:16:03.969Z,98798.47
2022-10-22T15:18:30.490Z,98801.97
2022-10-22T15:21:04.034Z,98805.63
2022-10-22T15:23:30.526Z,98795.50
2022-10-22T15:25:57.049Z,98799.94
2022-10-22T15:28:24.322Z,98797.13
2022-10-22T15:30:56.357Z,98795.59
2022-10-22T15:33:23.097Z,98786.44
2022-10-22T15:35:49.447Z,98794.97
2022-10-22T15:38:15.975Z,98785.63
2022-10-22T15:40:42.716Z,98785.50
2022-10-22T15:43:09.353Z,98788.56
2022-10-22T15:45:35.795Z,98786.03
2022-10-22T15:48:02.421Z,98795.06
2022-10-22T15:50:29.155Z,98790.75
2022-10-22T15:52:56.520Z,98796.81
2022-10-22T15:55:23.035Z,98799.31
2022-10-22T15:57:49.635Z,98799.97
2022-10-22T16:00:17.820Z,98801.66
2022-10-22T16:02:44.580Z,98810.84
2022-10-22T16:05:11.050Z,98805.50
2022-10-22T16:07:37.752Z,98815.13
2022-10-22T16:10:05.838Z,98809.75
2022-10-22T16:12:32.194Z,98813.06
2022-10-22T16:14:58.502Z,98818.22
2022-10-22T16:17:26.140Z,98817.16
2022-10-22T16:19:54.085Z,98815.88
2022-10-22T16:22:20.479Z,98822.34
2022-10-22T16:24:47.617Z,98832.50
2022-10-22T16:27:14.032Z,98827.13
2022-10-22T16:29:41.526Z,98825.03
2022-10-22T16:32:08.035Z,98837.91
2022-10-22T16:34:34.513Z,98829.56
2022-10-22T16:37:00.978Z,98837.34
2022-10-22T16:39:27.478Z,98839.31
2022-10-22T16:41:53.952Z,98838.59
2022-10-22T16:44:20.459Z,98843.47
2022-10-22T16:46:46.950Z,98851.69
2022-10-22T16:49:13.401Z,98861.66
2022-10-22T16:51:40.211Z,98855.19
2022-10-22T16:54:09.726Z,98874.69
2022-10-22T16:56:38.677Z,98872.28
2022-10-22T16:59:06.080Z,98878.22
2022-10-22T17:01:34.807Z,98886.41
2022-10-22T17:04:04.548Z,98888.09
2022-10-22T17:06:30.955Z,98897.63
2022-10-22T17:08:59.701Z,98899.09
2022-10-22T17:11:26.688Z,98905.59
2022-10-22T17:13:54.364Z,98896.28
2022-10-22T17:16:24.068Z,98895.53
2022-10-22T17:18:52.632Z,98893.09
2022-10-22T17:21:19.275Z,98894.19
2022-10-22T17:23:53.396Z,98903.09
2022-10-22T17:26:21.779Z,98904.34
2022-10-22T17:28:49.189Z,98902.75
2022-10-22T17:31:24.775Z,98900.50
2022-10-22T17:33:54.280Z,98899.50
2022-10-22T17:36:22.554Z,98909.63
2022-10-22T17:38:54.103Z,98913.53
2022-10-22T17:41:29.442Z,98921.00
2022-10-22T17:43:59.246Z,98924.72
2022-10-22T17:46:28.480Z,98930.34
2022-10-22T17:48:58.702Z,98933.44
2022-10-22T17:51:27.426Z,98943.34
2022-10-22T17:53:53.995Z,98941.34
2022-10-22T17:56:26.194Z,98953.75
2022-10-22T17:58:53.634Z,98947.16
2022-10-22T18:01:22.161Z,98947.16
2022-10-22T18:03:48.729Z,98950.25
2022-10-22T18:06:16.221Z,98951.28
2022-10-22T18:08:42.948Z,98955.41
2022-10-22T18:11:12.958Z,98953.56
2022-10-22T18:13:39.523Z,98953.59
2022-10-22T18:16:06.386Z,98949.66
2022-10-22T18:18:34.348Z,98953.16
2022-10-22T18:21:01.773Z,98953.56
2022-10-22T18:23:28.197Z,98953.97
2022-10-22T18:25:54.609Z,98953.38
2022-10-22T18:28:21.128Z,98956.47
2022-10-22T18:30:48.139Z,98954.41
2022-10-22T18:33:16.598Z,98949.69
2022-10-22T18:35:43.221Z,98947.59
2022-10-22T18:38:10.444Z,98936.06
2022-10-22T18:40:44.972Z,98936.69
2022-10-22T18:43:11.497Z,98937.50
2022-10-22T18:45:42.603Z,98935.03
2022-10-22T18:48:11.143Z,98930.06
2022-10-22T18:50:37.508Z,98940.59
2022-10-22T18:53:04.394Z,98941.16
2022-10-22T18:55:31.152Z,98932.94
2022-10-22T18:57:57.582Z,98941.59
2022-10-22T19:00:23.928Z,98942.19
2022-10-22T19:02:52.782Z,98937.44
2022-10-22T19:05:19.495Z,98935.97
2022-10-22T19:07:45.968Z,98935.38
2022-10-22T19:10:13.618Z,98937.41
2022-10-22T19:12:40.064Z,98930.84
2022-10-22T19:15:07.013Z,98937.19
2022-10-22T19:17:34.750Z,98934.91
2022-10-22T19:20:01.135Z,98941.53
2022-10-22T19:22:27.491Z,98948.69
2022-10-22T19:24:53.945Z,98948.69
2022-10-22T19:27:20.421Z,98940.03
2022-10-22T19:29:46.986Z,98941.25
2022-10-22T19:32:13.490Z,98943.53
2022-10-22T19:34:39.862Z,98947.59
2022-10-22T19:37:07.460Z,98946.53
2022-10-22T19:39:33.970Z,98945.53
2022-10-22T19:42:00.936Z,98944.25
2022-10-22T19:44:28.720Z,98942.84
2022-10-22T19:46:55.200Z,98946.13
2022-10-22T19:49:25.118Z,98943.25
2022-10-22T19:51:51.653Z,98935.41
2022-10-22T19:54:18.053Z,98936.63
2022-10-22T19:56:45.925Z,98941.53
2022-10-22T19:59:14.100Z,98933.72
2022-10-22T20:01:46.728Z,98935.78
2022-10-22T20:04:15.681Z,98945.00
2022-10-22T20:06:42.978Z,98933.50
2022-10-22T20:09:09.336Z,98941.72
2022-10-22T20:11:35.667Z,98934.69
2022-10-22T20:14:02.340Z,98947.41
2022-10-22T20:16:29.586Z,98952.34
2022-10-22T20:19:00.345Z,98945.13
2022-10-22T20:21:27.735Z,98957.88
2022-10-22T20:23:54.911Z,98961.00
2022-10-22T20:26:21.574Z,98955.22
2022-10-22T20:28:48.001Z,98963.41
2022-10-22T20:31:17.538Z,98966.09
2022-10-22T20:33:44.006Z,98974.94
2022-10-22T20:36:16.753Z,98967.34
2022-10-22T20:38:43.114Z,98962.16
2022-10-22T20:41:15.422Z,98950.00
2022-10-22T20:43:44.929Z,98960.09
2022-10-22T20:46:34.414Z,98966.69
2022-10-22T20:49:20.199Z,98968.06
2022-10-22T20:51:47.005Z,98965.34
2022-10-22T20:54:14.673Z,98965.56
2022-10-22T20:56:42.495Z,98965.56
2022-10-22T20:59:10.122Z,98972.09
2022-10-22T21:01:47.972Z,98961.81
2022-10-22T21:04:15.131Z,98956.63
2022-10-22T21:06:43.150Z,98950.47
2022-10-22T21:09:12.110Z,98951.50
2022-10-22T21:11:39.844Z,98956.03
2022-10-22T21:14:07.550Z,98950.88
2022-10-22T21:16:35.009Z,98953.94
2022-10-22T21:19:02.168Z,98953.31
2022-10-22T21:21:28.541Z,98954.53
2022-10-22T21:23:55.055Z,98952.66
2022-10-22T21:26:21.414Z,98951.41
2022-10-22T21:28:48.215Z,98945.66
2022-10-22T21:31:15.506Z,98943.88
2022-10-22T21:33:42.156Z,98941.44
2022-10-22T21:36:09.050Z,98946.13
2022-10-22T21:38:36.702Z,98952.28
2022-10-22T21:41:07.897Z,98957.38
2022-10-22T21:43:36.983Z,98963.75
2022-10-22T21:46:07.870Z,98966.19
2022-10-22T21:48:35.477Z,98965.72
2022-10-22T21:51:07.741Z,98962.22
2022-10-22T21:53:34.236Z,98974.09
2022-10-22T21:56:00.611Z,98970.19
2022-10-22T21:58:27.282Z,98969.91
2022-10-22T22:00:58.292Z,98963.53
2022-10-22T22:03:28.115Z,98966.63
2022-10-22T22:05:59.428Z,98969.09
2022-10-22T22:08:26.614Z,98967.44
2022-10-22T22:10:53.158Z,98962.13
2022-10-22T22:13:21.056Z,98964.94
2022-10-22T22:15:49.212Z,98965.16
2022-10-22T22:18:15.617Z,98957.97
2022-10-22T22:20:41.937Z,98954.66
2022-10-22T22:23:08.358Z,98955.69
2022-10-22T22:25:35.570Z,98950.56
2022-10-22T22:28:02.142Z,98955.25
2022-10-22T22:30:29.122Z,98953.34
2022-10-22T22:32:56.628Z,98947.72
2022-10-22T22:35:23.175Z,98948.75
2022-10-22T22:37:49.686Z,98950.22
2022-10-22T22:40:17.163Z,98949.03
2022-10-22T22:42:43.835Z,98950.50
2022-10-22T22:45:11.826Z,98949.25
2022-10-22T22:47:38.594Z,98949.41
2022-10-22T22:50:05.858Z,98952.31
2022-10-22T22:52:32.322Z,98954.59
2022-10-22T22:54:58.935Z,98951.94
2022-10-22T22:57:25.325Z,98945.22
2022-10-22T22:59:51.750Z,98943.91
2022-10-22T23:02:18.477Z,98936.28
2022-10-22T23:04:44.816Z,98947.13
2022-10-22T23:07:12.602Z,98932.75
2022-10-22T23:09:39.107Z,98933.13
2022-10-22T23:12:05.830Z,98926.69
2022-10-22T23:14:35.225Z,98933.44
2022-10-22T23:17:04.361Z,98930.50
2022-10-22T23:19:30.774Z,98920.03
2022-10-22T23:21:57.425Z,98925.38
2022-10-22T23:24:27.942Z,98922.88
2022-10-22T23:26:56.505Z,98914.25
2022-10-22T23:29:25.878Z,98918.50
2022-10-22T23:31:53.536Z,98910.22
2022-10-22T23:34:26.189Z,98902.97
2022-10-22T23:36:54.393Z,98892.69
2022-10-22T23:39:23.704Z,98898.59
2022-10-22T23:41:51.189Z,98904.75
2022-10-22T23:44:19.288Z,98904.47
2022-10-22T23:46:45.921Z,98905.06
2022-10-22T23:49:13.578Z,98897.59
2022-10-22T23:51:40.627Z,98911.59
2022-10-22T23:54:10.860Z,98912.16
2022-10-22T23:56:37.927Z,98900.41
2022-10-22T23:59:08.991Z,98902.41
